sensor_id;sensor_type;location;lat;lon;timestamp;temperature;humidity
318;DHT22;146;53.448;10.228;2023-03-23T00:00:22;11.80;1.00
318;DHT22;146;53.448;10.228;2023-03-23T00:02:49;11.80;1.00
318;DHT22;146;53.448;10.228;2023-03-23T00:05:16;11.70;1.00
318;DHT22;146;53.448;10.228;2023-03-23T00:07:43;11.70;1.00
318;DHT22;146;53.448;10.228;2023-03-23T00:10:10;11.70;1.00
318;DHT22;146;53.448;10.228;2023-03-23T00:12:37;11.50;1.00
318;DHT22;146;53.448;10.228;2023-03-23T00:15:09;11.50;1.00
318;DHT22;146;53.448;10.228;2023-03-23T00:17:39;11.50;1.00
318;DHT22;146;53.448;10.228;2023-03-23T00:20:07;11.50;1.00
318;DHT22;146;53.448;10.228;2023-03-23T00:22:38;11.50;1.00
318;DHT22;146;53.448;10.228;2023-03-23T00:25:06;11.50;1.00
318;DHT22;146;53.448;10.228;2023-03-23T00:27:34;11.50;1.00
318;DHT22;146;53.448;10.228;2023-03-23T00:30:02;11.60;1.00
318;DHT22;146;53.448;10.228;2023-03-23T00:32:34;11.50;1.00
318;DHT22;146;53.448;10.228;2023-03-23T00:35:03;11.60;1.00
318;DHT22;146;53.448;10.228;2023-03-23T00:37:36;11.50;1.10
318;DHT22;146;53.448;10.228;2023-03-23T00:40:03;11.50;1.60
318;DHT22;146;53.448;10.228;2023-03-23T00:42:35;11.40;1.90
318;DHT22;146;53.448;10.228;2023-03-23T00:45:06;11.30;2.50
318;DHT22;146;53.448;10.228;2023-03-23T00:47:37;11.30;3.00
318;DHT22;146;53.448;10.228;2023-03-23T00:50:13;11.30;3.30
318;DHT22;146;53.448;10.228;2023-03-23T00:52:40;11.30;3.50
318;DHT22;146;53.448;10.228;2023-03-23T00:55:09;11.30;3.60
318;DHT22;146;53.448;10.228;2023-03-23T00:57:36;11.30;3.70
318;DHT22;146;53.448;10.228;2023-03-23T01:00:03;11.30;3.90
318;DHT22;146;53.448;10.228;2023-03-23T01:02:34;11.20;4.10
318;DHT22;146;53.448;10.228;2023-03-23T01:05:03;11.20;4.40
318;DHT22;146;53.448;10.228;2023-03-23T01:07:32;11.10;4.70
318;DHT22;146;53.448;10.228;2023-03-23T01:09:58;11.00;4.70
318;DHT22;146;53.448;10.228;2023-03-23T01:12:26;11.10;5.20
318;DHT22;146;53.448;10.228;2023-03-23T01:14:52;11.00;5.50
318;DHT22;146;53.448;10.228;2023-03-23T01:17:19;11.00;5.90
318;DHT22;146;53.448;10.228;2023-03-23T01:19:49;10.90;6.00
318;DHT22;146;53.448;10.228;2023-03-23T01:22:16;10.90;6.40
318;DHT22;146;53.448;10.228;2023-03-23T01:24:44;10.90;6.70
318;DHT22;146;53.448;10.228;2023-03-23T01:27:11;10.90;6.80
318;DHT22;146;53.448;10.228;2023-03-23T01:29:37;10.90;7.00
318;DHT22;146;53.448;10.228;2023-03-23T01:32:05;10.90;7.10
318;DHT22;146;53.448;10.228;2023-03-23T01:34:31;10.80;7.10
318;DHT22;146;53.448;10.228;2023-03-23T01:36:59;10.90;7.00
318;DHT22;146;53.448;10.228;2023-03-23T01:39:28;10.90;7.00
318;DHT22;146;53.448;10.228;2023-03-23T01:42:00;10.90;7.00
318;DHT22;146;53.448;10.228;2023-03-23T01:47:42;10.90;6.80
318;DHT22;146;53.448;10.228;2023-03-23T01:50:09;10.90;7.00
318;DHT22;146;53.448;10.228;2023-03-23T01:52:42;10.90;6.90
318;DHT22;146;53.448;10.228;2023-03-23T01:55:13;10.90;7.00
318;DHT22;146;53.448;10.228;2023-03-23T01:57:43;10.90;6.90
318;DHT22;146;53.448;10.228;2023-03-23T02:00:11;11.00;6.80
318;DHT22;146;53.448;10.228;2023-03-23T02:02:42;11.00;6.80
318;DHT22;146;53.448;10.228;2023-03-23T02:05:15;10.90;6.90
318;DHT22;146;53.448;10.228;2023-03-23T02:07:45;10.90;7.00
318;DHT22;146;53.448;10.228;2023-03-23T02:10:13;10.80;7.20
318;DHT22;146;53.448;10.228;2023-03-23T02:12:44;10.80;7.40
318;DHT22;146;53.448;10.228;2023-03-23T02:15:11;10.80;7.60
318;DHT22;146;53.448;10.228;2023-03-23T02:17:43;10.80;7.70
318;DHT22;146;53.448;10.228;2023-03-23T02:20:26;10.80;8.00
318;DHT22;146;53.448;10.228;2023-03-23T02:23:19;10.80;8.00
318;DHT22;146;53.448;10.228;2023-03-23T02:26:00;10.80;8.20
318;DHT22;146;53.448;10.228;2023-03-23T02:29:01;10.80;8.40
318;DHT22;146;53.448;10.228;2023-03-23T02:31:45;10.80;8.50
318;DHT22;146;53.448;10.228;2023-03-23T02:34:25;10.90;8.50
318;DHT22;146;53.448;10.228;2023-03-23T02:36:58;10.90;8.50
318;DHT22;146;53.448;10.228;2023-03-23T02:39:32;10.80;8.50
318;DHT22;146;53.448;10.228;2023-03-23T02:42:05;10.80;8.60
318;DHT22;146;53.448;10.228;2023-03-23T02:44:41;10.90;8.80
318;DHT22;146;53.448;10.228;2023-03-23T02:47:22;10.90;8.70
318;DHT22;146;53.448;10.228;2023-03-23T02:49:54;10.90;8.80
318;DHT22;146;53.448;10.228;2023-03-23T02:52:25;11.00;9.00
318;DHT22;146;53.448;10.228;2023-03-23T02:54:53;10.90;8.60
318;DHT22;146;53.448;10.228;2023-03-23T02:57:24;11.00;8.50
318;DHT22;146;53.448;10.228;2023-03-23T02:59:55;11.00;8.40
318;DHT22;146;53.448;10.228;2023-03-23T03:02:27;11.10;8.30
318;DHT22;146;53.448;10.228;2023-03-23T03:05:00;10.90;8.20
318;DHT22;146;53.448;10.228;2023-03-23T03:07:54;10.90;8.40
318;DHT22;146;53.448;10.228;2023-03-23T03:10:26;10.90;8.50
318;DHT22;146;53.448;10.228;2023-03-23T03:13:00;10.90;8.70
318;DHT22;146;53.448;10.228;2023-03-23T03:15:33;11.00;8.60
318;DHT22;146;53.448;10.228;2023-03-23T03:18:10;10.90;8.80
318;DHT22;146;53.448;10.228;2023-03-23T03:20:45;10.90;8.40
318;DHT22;146;53.448;10.228;2023-03-23T03:23:15;11.00;8.60
318;DHT22;146;53.448;10.228;2023-03-23T03:25:46;11.00;8.70
318;DHT22;146;53.448;10.228;2023-03-23T03:28:20;11.00;8.70
318;DHT22;146;53.448;10.228;2023-03-23T03:30:53;11.10;8.70
318;DHT22;146;53.448;10.228;2023-03-23T03:33:27;11.10;8.40
318;DHT22;146;53.448;10.228;2023-03-23T03:36:05;11.00;8.20
318;DHT22;146;53.448;10.228;2023-03-23T03:38:41;11.00;8.20
318;DHT22;146;53.448;10.228;2023-03-23T03:41:08;11.10;8.40
318;DHT22;146;53.448;10.228;2023-03-23T03:43:37;11.10;8.20
318;DHT22;146;53.448;10.228;2023-03-23T03:46:07;11.10;8.00
318;DHT22;146;53.448;10.228;2023-03-23T03:48:34;11.10;7.90
318;DHT22;146;53.448;10.228;2023-03-23T03:51:10;11.10;8.10
318;DHT22;146;53.448;10.228;2023-03-23T03:53:37;11.10;7.70
318;DHT22;146;53.448;10.228;2023-03-23T03:56:05;11.10;7.50
318;DHT22;146;53.448;10.228;2023-03-23T03:58:32;11.00;7.60
318;DHT22;146;53.448;10.228;2023-03-23T04:01:02;11.00;7.70
318;DHT22;146;53.448;10.228;2023-03-23T04:03:33;11.10;7.80
318;DHT22;146;53.448;10.228;2023-03-23T04:06:01;11.00;7.90
318;DHT22;146;53.448;10.228;2023-03-23T04:08:31;11.00;7.70
318;DHT22;146;53.448;10.228;2023-03-23T04:11:01;11.00;7.90
318;DHT22;146;53.448;10.228;2023-03-23T04:13:31;11.00;8.10
318;DHT22;146;53.448;10.228;2023-03-23T04:15:58;11.00;8.10
318;DHT22;146;53.448;10.228;2023-03-23T04:18:34;11.00;8.10
318;DHT22;146;53.448;10.228;2023-03-23T04:21:03;11.10;8.20
318;DHT22;146;53.448;10.228;2023-03-23T04:23:35;11.10;8.10
318;DHT22;146;53.448;10.228;2023-03-23T04:26:03;11.20;8.20
318;DHT22;146;53.448;10.228;2023-03-23T04:28:33;11.30;8.00
318;DHT22;146;53.448;10.228;2023-03-23T04:31:05;11.40;7.30
318;DHT22;146;53.448;10.228;2023-03-23T04:33:32;11.40;6.70
318;DHT22;146;53.448;10.228;2023-03-23T04:36:00;11.40;6.30
318;DHT22;146;53.448;10.228;2023-03-23T04:38:28;11.50;6.10
318;DHT22;146;53.448;10.228;2023-03-23T04:41:03;11.50;5.80
318;DHT22;146;53.448;10.228;2023-03-23T04:43:30;11.50;5.50
318;DHT22;146;53.448;10.228;2023-03-23T04:46:07;11.40;5.40
318;DHT22;146;53.448;10.228;2023-03-23T04:48:34;11.40;5.50
318;DHT22;146;53.448;10.228;2023-03-23T04:51:01;11.50;5.50
318;DHT22;146;53.448;10.228;2023-03-23T04:53:29;11.50;5.40
318;DHT22;146;53.448;10.228;2023-03-23T04:56:04;11.50;4.90
318;DHT22;146;53.448;10.228;2023-03-23T04:58:31;11.50;4.90
318;DHT22;146;53.448;10.228;2023-03-23T05:00:59;11.50;4.60
318;DHT22;146;53.448;10.228;2023-03-23T05:03:26;11.60;4.70
318;DHT22;146;53.448;10.228;2023-03-23T05:06:02;11.70;4.50
318;DHT22;146;53.448;10.228;2023-03-23T05:08:35;11.70;4.20
318;DHT22;146;53.448;10.228;2023-03-23T05:11:06;11.70;3.90
318;DHT22;146;53.448;10.228;2023-03-23T05:13:33;11.60;3.30
318;DHT22;146;53.448;10.228;2023-03-23T05:16:04;11.70;3.30
318;DHT22;146;53.448;10.228;2023-03-23T05:18:31;11.70;3.00
318;DHT22;146;53.448;10.228;2023-03-23T05:21:05;11.70;2.70
318;DHT22;146;53.448;10.228;2023-03-23T05:23:31;11.70;2.00
318;DHT22;146;53.448;10.228;2023-03-23T05:26:02;11.70;2.00
318;DHT22;146;53.448;10.228;2023-03-23T05:28:33;11.70;2.00
318;DHT22;146;53.448;10.228;2023-03-23T05:31:07;11.70;1.90
318;DHT22;146;53.448;10.228;2023-03-23T05:33:34;11.70;2.00
318;DHT22;146;53.448;10.228;2023-03-23T05:36:01;11.70;1.90
318;DHT22;146;53.448;10.228;2023-03-23T05:38:32;11.70;1.80
318;DHT22;146;53.448;10.228;2023-03-23T05:40:59;11.60;1.80
318;DHT22;146;53.448;10.228;2023-03-23T05:43:29;11.60;2.00
318;DHT22;146;53.448;10.228;2023-03-23T05:46:03;11.60;2.10
318;DHT22;146;53.448;10.228;2023-03-23T05:48:33;11.60;2.10
318;DHT22;146;53.448;10.228;2023-03-23T05:51:03;11.70;2.10
318;DHT22;146;53.448;10.228;2023-03-23T05:53:30;11.70;2.10
318;DHT22;146;53.448;10.228;2023-03-23T05:55:58;11.70;1.90
318;DHT22;146;53.448;10.228;2023-03-23T05:58:26;11.70;1.20
318;DHT22;146;53.448;10.228;2023-03-23T06:00:52;11.70;1.50
318;DHT22;146;53.448;10.228;2023-03-23T06:03:22;11.70;1.30
318;DHT22;146;53.448;10.228;2023-03-23T06:05:49;11.80;1.30
318;DHT22;146;53.448;10.228;2023-03-23T06:08:15;11.80;1.00
318;DHT22;146;53.448;10.228;2023-03-23T06:10:43;11.80;1.00
318;DHT22;146;53.448;10.228;2023-03-23T06:13:15;11.80;1.00
318;DHT22;146;53.448;10.228;2023-03-23T06:15:41;11.80;1.00
318;DHT22;146;53.448;10.228;2023-03-23T06:18:11;11.80;1.00
318;DHT22;146;53.448;10.228;2023-03-23T06:20:42;11.80;1.00
318;DHT22;146;53.448;10.228;2023-03-23T06:23:09;11.90;1.00
318;DHT22;146;53.448;10.228;2023-03-23T06:25:36;11.90;1.00
318;DHT22;146;53.448;10.228;2023-03-23T06:28:03;11.90;1.00
318;DHT22;146;53.448;10.228;2023-03-23T06:30:30;11.80;1.00
318;DHT22;146;53.448;10.228;2023-03-23T06:32:56;11.80;1.00
318;DHT22;146;53.448;10.228;2023-03-23T06:35:29;11.80;1.00
318;DHT22;146;53.448;10.228;2023-03-23T06:37:59;11.70;1.00
318;DHT22;146;53.448;10.228;2023-03-23T06:40:27;11.70;1.00
318;DHT22;146;53.448;10.228;2023-03-23T06:42:56;11.70;1.00
318;DHT22;146;53.448;10.228;2023-03-23T06:45:29;11.80;1.00
318;DHT22;146;53.448;10.228;2023-03-23T06:48:02;11.80;1.00
318;DHT22;146;53.448;10.228;2023-03-23T06:50:35;11.80;1.00
318;DHT22;146;53.448;10.228;2023-03-23T06:53:03;11.80;1.00
318;DHT22;146;53.448;10.228;2023-03-23T06:55:33;11.80;1.00
318;DHT22;146;53.448;10.228;2023-03-23T06:58:03;11.90;1.00
318;DHT22;146;53.448;10.228;2023-03-23T07:00:34;11.90;1.00
318;DHT22;146;53.448;10.228;2023-03-23T07:03:01;11.90;1.00
318;DHT22;146;53.448;10.228;2023-03-23T07:05:28;11.90;1.00
318;DHT22;146;53.448;10.228;2023-03-23T07:07:58;11.90;1.00
318;DHT22;146;53.448;10.228;2023-03-23T07:10:29;12.00;1.00
318;DHT22;146;53.448;10.228;2023-03-23T07:13:00;12.00;1.00
318;DHT22;146;53.448;10.228;2023-03-23T07:15:29;12.00;1.00
318;DHT22;146;53.448;10.228;2023-03-23T07:17:56;12.10;1.00
318;DHT22;146;53.448;10.228;2023-03-23T07:20:26;12.10;1.00
318;DHT22;146;53.448;10.228;2023-03-23T07:22:55;12.20;1.00
318;DHT22;146;53.448;10.228;2023-03-23T07:25:31;12.20;1.00
318;DHT22;146;53.448;10.228;2023-03-23T07:28:01;12.30;1.00
318;DHT22;146;53.448;10.228;2023-03-23T07:30:29;12.30;1.00
318;DHT22;146;53.448;10.228;2023-03-23T07:33:09;12.40;1.00
318;DHT22;146;53.448;10.228;2023-03-23T07:35:42;12.40;1.00
318;DHT22;146;53.448;10.228;2023-03-23T07:38:09;12.50;1.00
318;DHT22;146;53.448;10.228;2023-03-23T07:40:38;12.50;1.00
318;DHT22;146;53.448;10.228;2023-03-23T07:43:05;12.60;1.00
318;DHT22;146;53.448;10.228;2023-03-23T07:45:31;12.60;1.00
318;DHT22;146;53.448;10.228;2023-03-23T07:48:10;12.70;1.00
318;DHT22;146;53.448;10.228;2023-03-23T07:50:38;12.80;1.00
318;DHT22;146;53.448;10.228;2023-03-23T07:53:04;12.90;1.00
318;DHT22;146;53.448;10.228;2023-03-23T07:55:31;12.80;1.00
318;DHT22;146;53.448;10.228;2023-03-23T07:58:00;12.80;1.00
318;DHT22;146;53.448;10.228;2023-03-23T08:00:26;12.90;1.00
318;DHT22;146;53.448;10.228;2023-03-23T08:02:57;12.90;1.00
318;DHT22;146;53.448;10.228;2023-03-23T08:05:25;12.90;1.00
318;DHT22;146;53.448;10.228;2023-03-23T08:07:55;12.90;1.00
318;DHT22;146;53.448;10.228;2023-03-23T08:10:23;12.90;1.00
318;DHT22;146;53.448;10.228;2023-03-23T08:12:55;12.80;1.00
318;DHT22;146;53.448;10.228;2023-03-23T08:15:23;12.80;1.00
318;DHT22;146;53.448;10.228;2023-03-23T08:18:04;12.90;1.00
318;DHT22;146;53.448;10.228;2023-03-23T08:20:40;12.90;1.00
318;DHT22;146;53.448;10.228;2023-03-23T08:23:07;12.90;1.00
318;DHT22;146;53.448;10.228;2023-03-23T08:25:34;12.90;1.00
318;DHT22;146;53.448;10.228;2023-03-23T08:28:01;13.00;1.00
318;DHT22;146;53.448;10.228;2023-03-23T08:30:30;13.00;1.00
318;DHT22;146;53.448;10.228;2023-03-23T08:32:59;13.00;1.00
318;DHT22;146;53.448;10.228;2023-03-23T08:35:29;13.00;1.00
318;DHT22;146;53.448;10.228;2023-03-23T08:37:56;13.00;1.00
318;DHT22;146;53.448;10.228;2023-03-23T08:40:24;13.00;1.00
318;DHT22;146;53.448;10.228;2023-03-23T08:42:58;12.90;1.00
318;DHT22;146;53.448;10.228;2023-03-23T08:45:25;12.90;1.00
318;DHT22;146;53.448;10.228;2023-03-23T08:48:00;12.80;1.00
318;DHT22;146;53.448;10.228;2023-03-23T08:50:27;12.60;1.00
318;DHT22;146;53.448;10.228;2023-03-23T08:52:59;12.50;1.00
318;DHT22;146;53.448;10.228;2023-03-23T08:55:26;12.30;1.00
318;DHT22;146;53.448;10.228;2023-03-23T08:57:53;12.20;1.00
318;DHT22;146;53.448;10.228;2023-03-23T09:00:26;12.10;1.00
318;DHT22;146;53.448;10.228;2023-03-23T09:02:57;11.80;1.00
318;DHT22;146;53.448;10.228;2023-03-23T09:05:27;11.60;1.00
318;DHT22;146;53.448;10.228;2023-03-23T09:07:56;11.50;1.00
318;DHT22;146;53.448;10.228;2023-03-23T09:10:30;11.60;1.00
318;DHT22;146;53.448;10.228;2023-03-23T09:13:00;11.50;1.00
318;DHT22;146;53.448;10.228;2023-03-23T09:15:26;11.50;1.00
318;DHT22;146;53.448;10.228;2023-03-23T09:18:00;11.50;1.00
318;DHT22;146;53.448;10.228;2023-03-23T09:20:43;11.50;1.00
318;DHT22;146;53.448;10.228;2023-03-23T09:23:13;11.60;1.00
318;DHT22;146;53.448;10.228;2023-03-23T09:25:40;11.70;1.00
318;DHT22;146;53.448;10.228;2023-03-23T09:28:16;11.70;1.00
318;DHT22;146;53.448;10.228;2023-03-23T09:30:43;11.90;1.00
318;DHT22;146;53.448;10.228;2023-03-23T09:33:11;11.90;1.00
318;DHT22;146;53.448;10.228;2023-03-23T09:35:45;12.00;1.00
318;DHT22;146;53.448;10.228;2023-03-23T09:38:15;12.10;1.00
318;DHT22;146;53.448;10.228;2023-03-23T09:40:46;12.00;1.00
318;DHT22;146;53.448;10.228;2023-03-23T09:43:36;12.00;1.00
318;DHT22;146;53.448;10.228;2023-03-23T09:46:21;12.10;1.00
318;DHT22;146;53.448;10.228;2023-03-23T09:48:54;12.10;1.00
318;DHT22;146;53.448;10.228;2023-03-23T09:51:41;12.20;1.00
318;DHT22;146;53.448;10.228;2023-03-23T09:54:13;12.40;1.00
318;DHT22;146;53.448;10.228;2023-03-23T09:56:41;12.50;1.00
318;DHT22;146;53.448;10.228;2023-03-23T09:59:16;12.40;1.00
318;DHT22;146;53.448;10.228;2023-03-23T10:01:47;12.50;1.00
318;DHT22;146;53.448;10.228;2023-03-23T10:04:27;12.60;1.00
318;DHT22;146;53.448;10.228;2023-03-23T10:07:08;12.60;1.00
318;DHT22;146;53.448;10.228;2023-03-23T10:09:36;12.70;1.00
318;DHT22;146;53.448;10.228;2023-03-23T10:12:09;12.70;1.00
318;DHT22;146;53.448;10.228;2023-03-23T10:14:59;12.70;1.00
318;DHT22;146;53.448;10.228;2023-03-23T10:17:34;12.90;1.00
318;DHT22;146;53.448;10.228;2023-03-23T10:20:15;12.90;1.00
318;DHT22;146;53.448;10.228;2023-03-23T10:23:02;13.00;1.00
318;DHT22;146;53.448;10.228;2023-03-23T10:25:34;13.00;1.00
318;DHT22;146;53.448;10.228;2023-03-23T10:28:06;13.00;1.00
318;DHT22;146;53.448;10.228;2023-03-23T10:30:37;13.00;1.00
318;DHT22;146;53.448;10.228;2023-03-23T10:33:11;13.00;1.00
318;DHT22;146;53.448;10.228;2023-03-23T10:35:42;13.00;1.00
318;DHT22;146;53.448;10.228;2023-03-23T10:38:15;13.10;1.00
318;DHT22;146;53.448;10.228;2023-03-23T10:40:49;13.20;1.00
318;DHT22;146;53.448;10.228;2023-03-23T10:43:17;13.30;1.00
318;DHT22;146;53.448;10.228;2023-03-23T10:45:45;13.30;1.00
318;DHT22;146;53.448;10.228;2023-03-23T10:48:17;13.40;1.00
318;DHT22;146;53.448;10.228;2023-03-23T10:51:02;13.50;1.00
318;DHT22;146;53.448;10.228;2023-03-23T10:53:34;13.60;1.00
318;DHT22;146;53.448;10.228;2023-03-23T10:56:05;13.60;1.00
318;DHT22;146;53.448;10.228;2023-03-23T10:58:46;13.80;1.00
318;DHT22;146;53.448;10.228;2023-03-23T11:01:13;14.00;1.00
318;DHT22;146;53.448;10.228;2023-03-23T11:03:48;13.90;1.00
318;DHT22;146;53.448;10.228;2023-03-23T11:06:29;13.80;1.00
318;DHT22;146;53.448;10.228;2023-03-23T11:09:09;13.90;1.00
318;DHT22;146;53.448;10.228;2023-03-23T11:11:40;13.80;1.00
318;DHT22;146;53.448;10.228;2023-03-23T11:14:16;13.90;1.00
318;DHT22;146;53.448;10.228;2023-03-23T11:16:50;13.80;1.00
318;DHT22;146;53.448;10.228;2023-03-23T11:19:37;13.80;1.00
318;DHT22;146;53.448;10.228;2023-03-23T11:22:27;13.90;1.00
318;DHT22;146;53.448;10.228;2023-03-23T11:25:14;13.90;1.00
318;DHT22;146;53.448;10.228;2023-03-23T11:27:42;13.90;1.00
318;DHT22;146;53.448;10.228;2023-03-23T11:33:13;14.00;1.00
318;DHT22;146;53.448;10.228;2023-03-23T11:39:24;14.00;1.00
318;DHT22;146;53.448;10.228;2023-03-23T11:42:18;14.00;1.00
318;DHT22;146;53.448;10.228;2023-03-23T11:44:45;14.10;1.00
318;DHT22;146;53.448;10.228;2023-03-23T11:47:23;14.10;1.00
318;DHT22;146;53.448;10.228;2023-03-23T11:52:23;13.90;1.00
318;DHT22;146;53.448;10.228;2023-03-23T11:55:02;13.80;1.00
318;DHT22;146;53.448;10.228;2023-03-23T11:57:37;13.80;1.00
318;DHT22;146;53.448;10.228;2023-03-23T12:00:33;13.90;1.00
318;DHT22;146;53.448;10.228;2023-03-23T12:03:33;14.00;1.00
318;DHT22;146;53.448;10.228;2023-03-23T12:06:16;14.00;1.00
318;DHT22;146;53.448;10.228;2023-03-23T12:09:17;13.80;1.00
318;DHT22;146;53.448;10.228;2023-03-23T12:12:12;13.80;1.00
318;DHT22;146;53.448;10.228;2023-03-23T12:15:05;13.70;1.00
318;DHT22;146;53.448;10.228;2023-03-23T12:17:54;13.70;1.00
318;DHT22;146;53.448;10.228;2023-03-23T12:23:58;13.70;1.00
318;DHT22;146;53.448;10.228;2023-03-23T12:27:02;13.50;1.00
318;DHT22;146;53.448;10.228;2023-03-23T12:29:56;13.40;1.00
318;DHT22;146;53.448;10.228;2023-03-23T12:32:48;13.50;1.00
318;DHT22;146;53.448;10.228;2023-03-23T12:35:31;13.60;1.00
318;DHT22;146;53.448;10.228;2023-03-23T12:38:39;13.70;1.00
318;DHT22;146;53.448;10.228;2023-03-23T12:41:20;13.70;1.00
318;DHT22;146;53.448;10.228;2023-03-23T12:44:00;13.60;1.00
318;DHT22;146;53.448;10.228;2023-03-23T12:47:11;13.70;1.00
318;DHT22;146;53.448;10.228;2023-03-23T12:49:48;13.70;1.00
318;DHT22;146;53.448;10.228;2023-03-23T12:52:21;13.80;1.00
318;DHT22;146;53.448;10.228;2023-03-23T12:55:00;13.80;1.00
318;DHT22;146;53.448;10.228;2023-03-23T12:57:32;13.70;1.00
318;DHT22;146;53.448;10.228;2023-03-23T13:00:06;13.80;1.00
318;DHT22;146;53.448;10.228;2023-03-23T13:06:22;13.80;1.00
318;DHT22;146;53.448;10.228;2023-03-23T13:08:53;13.80;1.00
318;DHT22;146;53.448;10.228;2023-03-23T13:11:32;13.90;1.00
318;DHT22;146;53.448;10.228;2023-03-23T13:14:09;14.00;1.00
318;DHT22;146;53.448;10.228;2023-03-23T13:16:46;14.20;1.00
318;DHT22;146;53.448;10.228;2023-03-23T13:19:22;14.20;1.00
318;DHT22;146;53.448;10.228;2023-03-23T13:22:01;14.20;1.00
318;DHT22;146;53.448;10.228;2023-03-23T13:24:34;14.20;1.00
318;DHT22;146;53.448;10.228;2023-03-23T13:27:04;14.30;1.00
318;DHT22;146;53.448;10.228;2023-03-23T13:29:32;14.40;1.00
318;DHT22;146;53.448;10.228;2023-03-23T13:32:09;14.50;1.00
318;DHT22;146;53.448;10.228;2023-03-23T13:34:39;14.80;1.00
318;DHT22;146;53.448;10.228;2023-03-23T13:37:20;15.00;1.00
318;DHT22;146;53.448;10.228;2023-03-23T13:39:50;15.10;1.00
318;DHT22;146;53.448;10.228;2023-03-23T13:42:20;15.20;1.00
318;DHT22;146;53.448;10.228;2023-03-23T13:45:07;15.30;1.00
318;DHT22;146;53.448;10.228;2023-03-23T13:47:37;15.40;1.00
318;DHT22;146;53.448;10.228;2023-03-23T13:50:11;15.40;1.00
318;DHT22;146;53.448;10.228;2023-03-23T13:52:50;15.30;1.00
318;DHT22;146;53.448;10.228;2023-03-23T13:55:27;15.40;1.00
318;DHT22;146;53.448;10.228;2023-03-23T13:58:20;15.30;1.00
318;DHT22;146;53.448;10.228;2023-03-23T14:01:10;15.10;1.00
318;DHT22;146;53.448;10.228;2023-03-23T14:03:47;15.10;1.00
318;DHT22;146;53.448;10.228;2023-03-23T14:06:19;15.00;1.00
318;DHT22;146;53.448;10.228;2023-03-23T14:08:52;14.70;1.00
318;DHT22;146;53.448;10.228;2023-03-23T14:11:22;14.70;1.00
318;DHT22;146;53.448;10.228;2023-03-23T14:14:04;14.60;1.00
318;DHT22;146;53.448;10.228;2023-03-23T14:16:36;14.60;1.00
318;DHT22;146;53.448;10.228;2023-03-23T14:19:21;14.60;1.00
318;DHT22;146;53.448;10.228;2023-03-23T14:21:50;14.70;1.00
318;DHT22;146;53.448;10.228;2023-03-23T14:24:21;14.80;1.00
318;DHT22;146;53.448;10.228;2023-03-23T14:27:09;14.80;1.00
318;DHT22;146;53.448;10.228;2023-03-23T14:29:44;14.70;1.00
318;DHT22;146;53.448;10.228;2023-03-23T14:32:15;14.50;1.00
318;DHT22;146;53.448;10.228;2023-03-23T14:34:43;13.60;1.00
318;DHT22;146;53.448;10.228;2023-03-23T14:37:15;12.70;1.00
318;DHT22;146;53.448;10.228;2023-03-23T14:39:49;12.10;1.00
318;DHT22;146;53.448;10.228;2023-03-23T14:42:31;11.60;1.00
318;DHT22;146;53.448;10.228;2023-03-23T14:45:00;11.30;1.00
318;DHT22;146;53.448;10.228;2023-03-23T14:47:34;11.20;1.00
318;DHT22;146;53.448;10.228;2023-03-23T14:50:18;11.00;1.00
318;DHT22;146;53.448;10.228;2023-03-23T14:52:48;10.80;1.00
318;DHT22;146;53.448;10.228;2023-03-23T14:55:17;10.60;1.00
318;DHT22;146;53.448;10.228;2023-03-23T14:57:45;10.60;1.00
318;DHT22;146;53.448;10.228;2023-03-23T15:00:14;10.40;1.00
318;DHT22;146;53.448;10.228;2023-03-23T15:02:45;10.30;1.00
318;DHT22;146;53.448;10.228;2023-03-23T15:05:17;10.30;1.00
318;DHT22;146;53.448;10.228;2023-03-23T15:07:48;10.40;1.00
318;DHT22;146;53.448;10.228;2023-03-23T15:10:22;10.50;1.10
318;DHT22;146;53.448;10.228;2023-03-23T15:12:50;10.60;1.60
318;DHT22;146;53.448;10.228;2023-03-23T15:15:26;10.50;1.60
318;DHT22;146;53.448;10.228;2023-03-23T15:17:59;10.70;2.40
318;DHT22;146;53.448;10.228;2023-03-23T15:20:28;10.70;2.40
318;DHT22;146;53.448;10.228;2023-03-23T15:22:56;10.70;3.10
318;DHT22;146;53.448;10.228;2023-03-23T15:25:32;10.70;3.60
318;DHT22;146;53.448;10.228;2023-03-23T15:28:14;10.80;3.50
318;DHT22;146;53.448;10.228;2023-03-23T15:30:52;10.80;3.30
318;DHT22;146;53.448;10.228;2023-03-23T15:33:20;10.90;3.70
318;DHT22;146;53.448;10.228;2023-03-23T15:35:53;11.00;3.70
318;DHT22;146;53.448;10.228;2023-03-23T15:38:22;11.10;3.60
318;DHT22;146;53.448;10.228;2023-03-23T15:40:55;11.10;3.10
318;DHT22;146;53.448;10.228;2023-03-23T15:43:24;11.20;3.00
318;DHT22;146;53.448;10.228;2023-03-23T15:46:21;11.20;2.50
318;DHT22;146;53.448;10.228;2023-03-23T15:49:08;11.10;1.00
318;DHT22;146;53.448;10.228;2023-03-23T15:51:42;11.10;1.00
318;DHT22;146;53.448;10.228;2023-03-23T15:54:15;11.20;1.00
318;DHT22;146;53.448;10.228;2023-03-23T15:56:44;11.30;1.00
318;DHT22;146;53.448;10.228;2023-03-23T15:59:11;11.40;1.00
318;DHT22;146;53.448;10.228;2023-03-23T16:01:41;11.50;1.00
318;DHT22;146;53.448;10.228;2023-03-23T16:04:14;11.50;1.00
318;DHT22;146;53.448;10.228;2023-03-23T16:06:42;11.50;1.00
318;DHT22;146;53.448;10.228;2023-03-23T16:09:15;11.50;1.00
318;DHT22;146;53.448;10.228;2023-03-23T16:11:42;11.50;1.00
318;DHT22;146;53.448;10.228;2023-03-23T16:14:16;11.50;1.00
318;DHT22;146;53.448;10.228;2023-03-23T16:16:47;11.50;1.00
318;DHT22;146;53.448;10.228;2023-03-23T16:19:15;11.50;1.00
318;DHT22;146;53.448;10.228;2023-03-23T16:21:42;11.50;1.00
318;DHT22;146;53.448;10.228;2023-03-23T16:24:09;11.50;1.00
318;DHT22;146;53.448;10.228;2023-03-23T16:26:36;11.50;1.00
318;DHT22;146;53.448;10.228;2023-03-23T16:29:12;11.50;1.00
318;DHT22;146;53.448;10.228;2023-03-23T16:31:43;11.50;1.00
318;DHT22;146;53.448;10.228;2023-03-23T16:34:10;11.50;1.00
318;DHT22;146;53.448;10.228;2023-03-23T16:36:37;11.60;1.00
318;DHT22;146;53.448;10.228;2023-03-23T16:39:08;11.60;1.00
318;DHT22;146;53.448;10.228;2023-03-23T16:41:35;11.70;1.00
318;DHT22;146;53.448;10.228;2023-03-23T16:44:02;11.70;1.00
318;DHT22;146;53.448;10.228;2023-03-23T16:46:29;11.70;1.00
318;DHT22;146;53.448;10.228;2023-03-23T16:49:03;11.50;1.00
318;DHT22;146;53.448;10.228;2023-03-23T16:51:32;11.40;1.00
318;DHT22;146;53.448;10.228;2023-03-23T16:54:05;11.30;1.00
318;DHT22;146;53.448;10.228;2023-03-23T16:56:35;11.20;1.00
318;DHT22;146;53.448;10.228;2023-03-23T16:59:02;11.20;1.00
318;DHT22;146;53.448;10.228;2023-03-23T17:01:33;11.20;1.00
318;DHT22;146;53.448;10.228;2023-03-23T17:04:08;11.20;1.00
318;DHT22;146;53.448;10.228;2023-03-23T17:06:35;11.30;1.00
318;DHT22;146;53.448;10.228;2023-03-23T17:09:02;11.30;1.00
318;DHT22;146;53.448;10.228;2023-03-23T17:11:35;11.30;1.00
318;DHT22;146;53.448;10.228;2023-03-23T17:14:04;11.20;1.00
318;DHT22;146;53.448;10.228;2023-03-23T17:16:31;11.20;1.00
318;DHT22;146;53.448;10.228;2023-03-23T17:19:01;11.20;1.00
318;DHT22;146;53.448;10.228;2023-03-23T17:21:38;11.20;1.00
318;DHT22;146;53.448;10.228;2023-03-23T17:24:10;11.00;1.00
318;DHT22;146;53.448;10.228;2023-03-23T17:26:40;10.90;1.00
318;DHT22;146;53.448;10.228;2023-03-23T17:29:09;10.90;1.00